Hampton Falls, New Hampshire
Current Conditions -  °F | °C
As of 2:43 AM on Thursday 23 Oct 2014 (Local Time) from KPSM Reporting Station
Light Rain Light Rain  
Wind Chill: 41°   Ceiling: 600
Heat Index: 48°   Visibility: 3mi
Dew Point: 45°   Wind: 21mph
Humidity: 87%   Direction: 10°N
Pressure: 29.79"   Gusts: 29mph
Location:  42.92°N, 70.86°W
Report Text: KPSM 230643Z 01018G25KT 3SM -RA BR OVC006 09/07 A2979 RMK AO2A
Loading
Personal Weather Stations






























Interactive Weather Map New forecast layout! Learn more

10-Day Weather Forecast

Advertisements
Track Severe Weather on mobile